Pagrindinis puslapis
METAR-TAF:

METAR-TAF

Oro uostai :

Vijayawada, Indija

platuma: 16-31-44N, ilguma: 80-47-45E, Aukštis: 25 m

Dabartinis oras

Ataskaita buvo paskelbta 1 valandą ir 56 minutes, ne 16:30 UTC
Ramus vėjas
Temperatūra 24°C
Drėgmė 83%
Slėgis 1015 hPa
Matomumas: 3000 m
rūkana

METAR: VOBZ 171630Z 00000KT 3000 BR NSC 24/21 Q1015 NOSIG

Laikas: 23:56 (18:26 UTC)

Prognozė

Ataskaita buvo paskelbta 10 valandos ir 26 minutes, ne 08:00 UTC
Prognozė galioja nuo 17 metu 09 UTC su 17 metu 18 UTC
Vėjas 6 kt iš Pietų/Pietryčių
Matomumas: 5000 m
migla
Laikinai
nuo 17 metu 09 UTC su 17 metu 11 UTC
Vėjas 6 kt iš Pietų/Pietvakarių
Matomumas: 6000 m
Mažai debesys ne aukštis 2500 ft
Išsisklaidę debesys ne aukštis 10000 ft
Laikinai
nuo 17 metu 11 UTC su 17 metu 18 UTC
Vėjas 6 kt iš Pietryčių
Matomumas: 3000 m
Mažai debesys ne aukštis 2500 ft
Išsisklaidę debesys ne aukštis 10000 ft
rūkana

TAF: VOBZ 170800Z 1709/1718 16006KT 5000 HZ NSC TEMPO 1709/1711 20006KT 6000 FEW025 SCT100 TEMPO 1711/1718 14006KT 3000 BR FEW025 SCT100

Orai ataskaitas ir orų prognozės (METAR, TAF).

turimą stotys yra geltonos ir raudonos taškus žemėlapyje.

Perkelti pele per norėdami pamatyti stoties vardą.

Tada spustelėkite, norėdami matyti oro stebėjimo ir prognozės.

Norėdami pakeisti žemėlapį: spustelėkite ant žalios mygtukų su juodo kryžiaus žemyn,; žalią mygtuką su brūkšneliu, jei norite nutolinti; arba žalių rodyklių gretimoms žemėlapius.


METAR-TAF: